createdAt,value
2023-04-17T00:03:25.383Z,118.82
2023-04-17T00:08:29.636Z,115.90
2023-04-17T00:13:33.507Z,115.85
2023-04-17T00:18:47.501Z,106.32
2023-04-17T00:23:51.616Z,109.10
2023-04-17T00:28:54.438Z,109.30
2023-04-17T00:33:58.838Z,120.10
2023-04-17T00:39:04.300Z,110.03
2023-04-17T00:44:23.471Z,130.57
2023-04-17T00:49:26.845Z,135.33
2023-04-17T00:54:37.542Z,136.63
2023-04-17T00:59:40.727Z,149.20
2023-04-17T01:04:44.557Z,154.10
2023-04-17T01:10:04.039Z,125.82
2023-04-17T01:15:08.163Z,125.70
2023-04-17T01:20:12.047Z,123.50
2023-04-17T01:25:16.324Z,115.85
2023-04-17T01:30:27.553Z,110.73
2023-04-17T01:35:36.331Z,106.32
2023-04-17T01:40:41.155Z,115.55
2023-04-17T01:45:44.017Z,109.45
2023-04-17T01:50:47.614Z,116.15
2023-04-17T01:55:54.488Z,109.07
2023-04-17T02:01:14.723Z,110.37
2023-04-17T02:06:19.793Z,107.95
2023-04-17T02:11:26.445Z,98.53
2023-04-17T02:16:31.804Z,89.57
2023-04-17T02:21:34.730Z,84.10
2023-04-17T02:26:52.642Z,72.78
2023-04-17T02:31:55.732Z,79.75
2023-04-17T02:37:21.114Z,76.33
2023-04-17T02:42:26.078Z,68.80
2023-04-17T02:47:29.309Z,69.75
2023-04-17T02:52:34.054Z,64.18
2023-04-17T02:57:39.249Z,60.63
2023-04-17T03:02:42.927Z,63.65
2023-04-17T03:07:46.029Z,59.90
2023-04-17T03:12:52.367Z,46.00
2023-04-17T03:18:02.958Z,43.33
2023-04-17T03:23:05.768Z,43.60
2023-04-17T03:28:10.259Z,45.90
2023-04-17T03:33:13.111Z,44.87
2023-04-17T03:38:18.590Z,42.47
2023-04-17T03:44:04.674Z,40.73
2023-04-17T03:49:07.674Z,40.70
2023-04-17T03:54:11.888Z,42.30
2023-04-17T03:59:17.411Z,52.05
2023-04-17T04:04:21.724Z,36.00
2023-04-17T04:09:34.186Z,37.55
2023-04-17T04:14:41.754Z,35.78
2023-04-17T04:19:46.453Z,38.13
2023-04-17T04:24:53.638Z,36.85
2023-04-17T04:30:04.155Z,35.60
2023-04-17T04:35:12.794Z,42.38
2023-04-17T04:40:15.805Z,38.10
2023-04-17T04:45:20.592Z,38.42
2023-04-17T04:50:23.689Z,47.30
2023-04-17T04:55:26.668Z,41.90
2023-04-17T05:00:33.589Z,43.08
2023-04-17T05:05:37.817Z,40.97
2023-04-17T05:10:42.276Z,48.92
2023-04-17T05:15:46.634Z,41.60
2023-04-17T05:20:51.281Z,49.50
2023-04-17T05:26:05.866Z,44.10
2023-04-17T05:31:10.242Z,45.85
2023-04-17T05:36:17.206Z,45.03
2023-04-17T05:41:21.496Z,42.10
2023-04-17T05:46:26.007Z,40.67
2023-04-17T05:51:41.366Z,35.92
2023-04-17T05:56:44.933Z,36.38
2023-04-17T06:01:49.490Z,33.77
2023-04-17T06:06:56.574Z,39.10
2023-04-17T06:11:59.471Z,38.27
2023-04-17T06:17:18.585Z,42.57
2023-04-17T06:22:21.702Z,35.20
2023-04-17T06:27:24.567Z,37.33
2023-04-17T06:32:29.143Z,38.63
2023-04-17T06:37:32.798Z,41.97
2023-04-17T06:42:53.310Z,41.95
2023-04-17T06:47:59.392Z,43.72
2023-04-17T06:53:02.369Z,44.25
2023-04-17T06:58:05.411Z,44.17
2023-04-17T07:03:10.000Z,39.58
2023-04-17T07:08:30.872Z,35.80
2023-04-17T07:13:33.684Z,36.33
2023-04-17T07:18:37.963Z,37.03
2023-04-17T07:23:40.904Z,35.63
2023-04-17T07:28:43.832Z,39.47
2023-04-17T07:34:08.373Z,35.85
2023-04-17T07:39:11.628Z,33.10
2023-04-17T07:44:14.758Z,33.28
2023-04-17T07:49:19.004Z,29.27
2023-04-17T07:54:21.875Z,32.28
2023-04-17T07:59:42.848Z,35.88
2023-04-17T08:04:47.384Z,38.17
2023-04-17T08:09:51.065Z,28.13
2023-04-17T08:14:53.958Z,27.25
2023-04-17T08:19:58.572Z,29.48
2023-04-17T08:25:18.776Z,29.92
2023-04-17T08:30:21.705Z,28.17
2023-04-17T08:35:26.718Z,34.33
2023-04-17T08:40:29.630Z,25.73
2023-04-17T08:45:33.766Z,24.88
2023-04-17T08:50:57.381Z,25.90
2023-04-17T08:56:06.879Z,25.20
2023-04-17T09:01:15.747Z,27.30
2023-04-17T09:06:19.993Z,24.63
2023-04-17T09:11:22.975Z,25.60
2023-04-17T09:16:32.101Z,26.95
2023-04-17T09:21:36.384Z,25.20
2023-04-17T09:26:39.388Z,27.73
2023-04-17T09:31:45.191Z,28.70
2023-04-17T09:36:55.272Z,22.97
2023-04-17T09:42:10.462Z,24.52
2023-04-17T09:47:14.113Z,24.75
2023-04-17T09:52:18.684Z,21.75
2023-04-17T09:57:21.659Z,22.98
2023-04-17T10:02:24.735Z,20.37
2023-04-17T10:07:46.520Z,23.38
2023-04-17T10:12:50.362Z,21.47
2023-04-17T10:17:56.236Z,18.63
2023-04-17T10:23:01.350Z,18.83
2023-04-17T10:28:04.243Z,17.77
2023-04-17T10:33:26.567Z,20.08
2023-04-17T10:38:39.994Z,18.15
2023-04-17T10:43:45.540Z,17.20
2023-04-17T10:48:52.074Z,20.15
2023-04-17T10:53:58.084Z,18.45
2023-04-17T10:59:02.266Z,19.52
2023-04-17T11:04:05.407Z,15.90
2023-04-17T11:09:11.288Z,15.45
2023-04-17T11:14:16.488Z,18.67
2023-04-17T11:19:20.107Z,22.55
2023-04-17T11:24:35.545Z,16.95
2023-04-17T11:29:38.388Z,19.60
2023-04-17T11:34:42.513Z,15.30
2023-04-17T11:39:46.887Z,17.88
2023-04-17T11:44:49.821Z,20.43
2023-04-17T11:50:10.332Z,21.17
2023-04-17T11:55:16.126Z,18.48
2023-04-17T12:00:26.083Z,20.48
2023-04-17T12:05:30.139Z,20.40
2023-04-17T12:10:39.534Z,20.75
2023-04-17T12:15:47.241Z,22.77
2023-04-17T12:20:50.401Z,22.52
2023-04-17T12:25:54.755Z,18.60
2023-04-17T12:30:57.759Z,21.10
2023-04-17T12:36:01.877Z,21.85
2023-04-17T12:41:25.453Z,17.50
2023-04-17T12:46:28.397Z,20.20
2023-04-17T12:51:37.393Z,17.17
2023-04-17T12:56:41.670Z,18.58
2023-04-17T13:01:44.705Z,22.27
2023-04-17T13:06:58.387Z,18.63
2023-04-17T13:12:05.338Z,19.35
2023-04-17T13:17:08.765Z,18.80
2023-04-17T13:22:12.300Z,21.77
2023-04-17T13:27:16.872Z,23.48
2023-04-17T13:32:35.396Z,22.42
2023-04-17T13:37:38.355Z,18.88
2023-04-17T13:42:44.670Z,26.02
2023-04-17T13:47:47.677Z,22.27
2023-04-17T13:52:51.060Z,20.38
2023-04-17T13:58:13.051Z,16.73
2023-04-17T14:03:16.189Z,17.55
2023-04-17T14:08:42.902Z,19.25
2023-04-17T14:13:48.488Z,20.73
2023-04-17T14:18:52.193Z,21.25
2023-04-17T14:23:56.829Z,21.13
2023-04-17T14:29:01.013Z,19.38
2023-04-17T14:34:03.932Z,21.77
2023-04-17T14:39:07.140Z,17.50
2023-04-17T14:44:11.473Z,21.20
2023-04-17T14:49:25.173Z,20.75
2023-04-17T14:54:28.025Z,19.98
2023-04-17T14:59:32.220Z,20.52
2023-04-17T15:04:35.068Z,18.00
2023-04-17T15:09:37.963Z,17.30
2023-04-17T15:15:02.192Z,16.98
2023-04-17T15:20:05.534Z,17.90
2023-04-17T15:25:08.990Z,21.17
2023-04-17T15:30:14.644Z,20.00
2023-04-17T15:35:17.583Z,21.67
2023-04-17T15:40:37.493Z,16.20
2023-04-17T15:45:41.967Z,16.42
2023-04-17T15:50:44.936Z,23.45
2023-04-17T15:55:47.824Z,19.02
2023-04-17T16:00:52.189Z,17.17
2023-04-17T16:06:14.431Z,18.50
2023-04-17T16:11:17.244Z,18.08
2023-04-17T16:16:21.502Z,15.05
2023-04-17T16:21:24.443Z,19.20
2023-04-17T16:26:27.434Z,16.98
2023-04-17T16:31:52.115Z,17.75
2023-04-17T16:36:54.973Z,19.70
2023-04-17T16:41:57.833Z,18.55
2023-04-17T16:52:08.009Z,23.90
2023-04-17T16:57:25.671Z,27.50
2023-04-17T17:02:29.994Z,19.80
2023-04-17T17:07:33.046Z,22.35
2023-04-17T17:12:35.906Z,20.05
2023-04-17T17:17:40.312Z,24.07
2023-04-17T17:23:02.103Z,23.50
2023-04-17T17:28:05.071Z,26.20
2023-04-17T17:33:11.944Z,26.60
2023-04-17T17:38:15.063Z,25.87
2023-04-17T17:43:17.941Z,23.40
2023-04-17T17:48:40.590Z,25.35
2023-04-17T17:53:43.383Z,25.63
2023-04-17T17:58:46.259Z,26.35
2023-04-17T18:03:50.737Z,29.70
2023-04-17T18:08:53.990Z,27.37
2023-04-17T18:14:15.263Z,26.75
2023-04-17T18:19:19.525Z,23.52
2023-04-17T18:24:22.524Z,23.05
2023-04-17T18:29:25.517Z,23.42
2023-04-17T18:34:31.798Z,24.07
2023-04-17T18:39:53.410Z,24.07
2023-04-17T18:44:56.206Z,24.13
2023-04-17T18:50:08.200Z,23.58
2023-04-17T18:55:11.205Z,21.87
2023-04-17T19:00:16.868Z,28.88
2023-04-17T19:05:29.708Z,27.25
2023-04-17T19:10:32.596Z,26.33
2023-04-17T19:15:41.119Z,22.63
2023-04-17T19:20:45.306Z,22.50
2023-04-17T19:25:53.560Z,26.87
2023-04-17T19:31:04.439Z,30.05
2023-04-17T19:36:08.625Z,20.48
2023-04-17T19:41:17.259Z,22.17
2023-04-17T19:46:21.223Z,23.00
2023-04-17T19:51:31.371Z,21.33
2023-04-17T19:56:41.135Z,20.45
2023-04-17T20:01:44.559Z,22.20
2023-04-17T20:06:48.998Z,21.52
2023-04-17T20:11:51.818Z,18.13
2023-04-17T20:16:56.765Z,21.63
2023-04-17T20:22:21.243Z,20.65
2023-04-17T20:27:24.022Z,20.90
2023-04-17T20:32:29.033Z,17.15
2023-04-17T20:37:33.257Z,21.58
2023-04-17T20:42:37.164Z,19.27
2023-04-17T20:47:56.891Z,18.23
2023-04-17T20:53:01.434Z,19.73
2023-04-17T20:58:04.186Z,17.90
2023-04-17T21:03:31.847Z,18.33
2023-04-17T21:08:36.214Z,19.93
2023-04-17T21:13:39.065Z,17.73
2023-04-17T21:18:41.864Z,17.67
2023-04-17T21:23:46.105Z,22.48
2023-04-17T21:28:48.860Z,17.97
2023-04-17T21:33:51.672Z,17.63
2023-04-17T21:39:08.024Z,18.60
2023-04-17T21:44:11.592Z,19.80
2023-04-17T21:49:14.591Z,15.43
2023-04-17T21:54:18.753Z,21.17
2023-04-17T21:59:21.572Z,20.35
2023-04-17T22:04:43.943Z,18.20
2023-04-17T22:09:48.211Z,23.63
2023-04-17T22:14:51.099Z,20.75
2023-04-17T22:20:30.519Z,21.88
2023-04-17T22:25:53.542Z,16.05
2023-04-17T22:31:51.669Z,18.58
2023-04-17T22:38:08.194Z,17.90
2023-04-17T22:43:29.790Z,17.00
2023-04-17T22:48:51.418Z,20.83
2023-04-17T22:54:50.087Z,22.75
2023-04-17T23:00:31.184Z,16.95
2023-04-17T23:05:52.615Z,17.52
2023-04-17T23:11:13.668Z,16.65
2023-04-17T23:16:18.020Z,16.38
2023-04-17T23:21:32.045Z,17.17
2023-04-17T23:26:34.896Z,17.08
2023-04-17T23:31:39.218Z,17.70
2023-04-17T23:36:42.079Z,17.23
2023-04-17T23:41:45.612Z,11.60
2023-04-17T23:47:10.459Z,12.63
2023-04-17T23:52:13.249Z,14.67
2023-04-17T23:57:16.269Z,11.70
